Time;durP1;ratioP1;P1;durP2;ratioP2;P2;SDS_P1;SDS_P2;PMS_P1;PMS_P2;Temp;Humidity;BMP_temperature;BMP_pressure;BME280_temperature;BME280_humidity;BME280_pressure;Samples;Min_cycle;Max_cycle;Signal;HPM_P1;HPM_P2
2022/07/13 00:01:46;;;;;;;2.40;1.00;;;19.40;71.30;;;;;;7380977;19;20430;-46
2022/07/13 00:04:16;;;;;;;0.80;0.80;;;19.50;69.80;;;;;;7379975;19;20375;-46
2022/07/13 00:06:45;;;;;;;0.97;0.90;;;19.30;71.00;;;;;;7379027;19;20376;-46
2022/07/13 00:09:15;;;;;;;1.70;1.60;;;19.30;71.70;;;;;;7378300;19;20906;-46
2022/07/13 00:11:44;;;;;;;1.33;1.00;;;19.40;72.50;;;;;;7378796;19;20446;-46
2022/07/13 00:14:14;;;;;;;1.10;1.00;;;19.10;74.10;;;;;;7382628;19;20399;-45
2022/07/13 00:16:43;;;;;;;1.07;0.97;;;18.90;75.50;;;;;;7381895;19;21620;-46
2022/07/13 00:19:15;;;;;;;1.50;1.20;;;19.30;73.60;;;;;;7382558;19;20388;-47
2022/07/13 00:21:45;;;;;;;1.73;1.20;;;19.70;71.20;;;;;;7380612;19;20404;-46
2022/07/13 00:24:15;;;;;;;1.60;1.30;;;20.10;70.00;;;;;;7374277;19;21243;-46
2022/07/13 00:26:45;;;;;;;1.23;1.13;;;20.20;68.60;;;;;;7378172;19;20375;-46
2022/07/13 00:29:14;;;;;;;1.70;0.90;;;20.00;69.50;;;;;;7377606;19;20380;-46
2022/07/13 00:31:46;;;;;;;1.23;1.03;;;19.40;73.30;;;;;;7377437;19;20384;-46
2022/07/13 00:34:21;;;;;;;1.03;0.97;;;19.10;76.20;;;;;;7381567;19;20392;-46
2022/07/13 00:36:53;;;;;;;1.60;1.50;;;18.90;77.30;;;;;;7380128;19;20404;-46
2022/07/13 00:39:23;;;;;;;1.43;1.20;;;18.90;77.30;;;;;;7379341;19;20376;-45
2022/07/13 00:41:52;;;;;;;1.20;1.00;;;19.00;77.80;;;;;;7380144;19;20411;-46
2022/07/13 00:44:21;;;;;;;1.27;1.13;;;19.10;76.80;;;;;;7373257;19;20464;-46
2022/07/13 00:46:56;;;;;;;3.70;0.90;;;19.20;75.40;;;;;;7376452;19;20379;-45
2022/07/13 00:49:28;;;;;;;1.27;1.17;;;19.00;76.80;;;;;;7375373;19;20727;-46
2022/07/13 00:51:58;;;;;;;1.50;1.00;;;19.00;77.60;;;;;;7376896;19;21085;-46
2022/07/13 00:54:32;;;;;;;1.17;1.10;;;18.60;80.30;;;;;;7372827;19;20917;-46
2022/07/13 00:57:03;;;;;;;1.40;1.20;;;18.60;81.50;;;;;;7376081;19;20804;-46
2022/07/13 00:59:33;;;;;;;1.17;0.97;;;18.30;83.50;;;;;;7376835;19;20500;-45
2022/07/13 01:02:03;;;;;;;1.07;0.87;;;18.60;81.80;;;;;;7381083;19;20368;-45
2022/07/13 01:04:35;;;;;;;1.73;1.10;;;18.50;82.80;;;;;;7378193;19;21493;-45
2022/07/13 01:07:05;;;;;;;1.53;1.20;;;18.30;84.50;;;;;;7375576;19;20379;-46
2022/07/13 01:09:35;;;;;;;1.10;1.00;;;18.20;85.80;;;;;;7376612;19;20380;-46
2022/07/13 01:12:04;;;;;;;3.00;1.20;;;18.60;84.50;;;;;;7369866;19;20376;-46
2022/07/13 01:14:34;;;;;;;1.37;1.00;;;18.90;81.70;;;;;;7377512;19;20360;-46
2022/07/13 01:17:05;;;;;;;1.60;1.10;;;19.20;79.10;;;;;;7375178;19;20368;-46
2022/07/13 01:19:39;;;;;;;1.73;1.30;;;19.10;78.90;;;;;;7379238;19;20379;-46
2022/07/13 01:22:10;;;;;;;2.83;0.97;;;19.10;79.60;;;;;;7376871;19;20450;-45
2022/07/13 01:24:43;;;;;;;1.10;0.90;;;19.10;80.00;;;;;;7375447;19;20424;-45
2022/07/13 01:27:13;;;;;;;1.70;1.00;;;18.90;81.60;;;;;;7373756;19;20368;-46
2022/07/13 01:29:42;;;;;;;1.50;1.20;;;18.80;82.90;;;;;;7379019;19;20411;-46
2022/07/13 01:32:12;;;;;;;1.13;1.03;;;18.80;82.80;;;;;;7381751;19;20376;-46
2022/07/13 01:34:41;;;;;;;1.07;0.97;;;18.90;82.30;;;;;;7383400;19;20387;-46
2022/07/13 01:37:12;;;;;;;2.00;1.10;;;19.10;80.60;;;;;;7371359;19;21040;-46
2022/07/13 01:39:44;;;;;;;1.83;0.87;;;19.30;79.10;;;;;;7374970;19;20440;-46
2022/07/13 01:42:13;;;;;;;2.07;1.30;;;19.20;80.00;;;;;;7377045;19;21104;-46
2022/07/13 01:44:43;;;;;;;1.93;1.10;;;19.00;81.70;;;;;;7376580;19;20376;-46
2022/07/13 01:47:12;;;;;;;0.90;0.90;;;19.00;83.00;;;;;;7373485;19;20424;-46
2022/07/13 01:49:42;;;;;;;1.97;1.20;;;19.00;82.10;;;;;;7381389;19;20372;-46
2022/07/13 01:52:11;;;;;;;1.10;1.00;;;19.00;82.60;;;;;;7371200;19;21296;-46
2022/07/13 01:54:43;;;;;;;2.00;1.20;;;19.00;82.30;;;;;;7373371;19;20385;-46
2022/07/13 01:57:13;;;;;;;1.53;0.90;;;18.60;85.20;;;;;;7376241;19;20515;-46
2022/07/13 01:59:44;;;;;;;0.87;0.87;;;18.60;86.00;;;;;;7366369;19;21460;-45
2022/07/13 02:02:16;;;;;;;3.50;1.10;;;18.80;85.70;;;;;;7377245;19;20444;-46
2022/07/13 02:04:46;;;;;;;1.03;0.90;;;19.10;83.30;;;;;;7377668;19;20410;-46
2022/07/13 02:07:16;;;;;;;2.10;1.10;;;19.30;82.00;;;;;;7376993;19;20372;-46
2022/07/13 02:09:48;;;;;;;1.10;0.80;;;19.40;81.60;;;;;;7375438;19;20739;-46
2022/07/13 02:12:18;;;;;;;1.20;1.10;;;19.20;82.70;;;;;;7373673;19;20371;-46
2022/07/13 02:14:48;;;;;;;5.00;1.40;;;19.30;81.40;;;;;;7380212;19;20478;-45
2022/07/13 02:17:17;;;;;;;1.17;1.00;;;19.20;82.40;;;;;;7375751;19;20480;-46
2022/07/13 02:19:49;;;;;;;1.10;1.00;;;19.10;83.20;;;;;;7376366;19;21393;-46
2022/07/13 02:22:19;;;;;;;1.63;0.93;;;18.90;85.00;;;;;;7375906;19;20402;-45
2022/07/13 02:24:51;;;;;;;1.77;1.27;;;18.70;87.20;;;;;;7380247;19;20395;-45
2022/07/13 02:27:20;;;;;;;1.80;1.07;;;18.60;88.50;;;;;;7384835;19;20964;-46
2022/07/13 02:29:51;;;;;;;2.33;1.30;;;18.90;86.80;;;;;;7383156;19;20380;-45
2022/07/13 02:32:20;;;;;;;1.47;0.90;;;18.90;87.10;;;;;;7382777;19;20916;-45
2022/07/13 02:34:50;;;;;;;1.60;1.20;;;19.00;86.90;;;;;;7381928;19;20397;-46
2022/07/13 02:37:19;;;;;;;1.67;1.57;;;19.20;86.40;;;;;;7385070;19;20384;-46
2022/07/13 02:39:53;;;;;;;1.10;1.00;;;19.40;84.60;;;;;;7385012;19;20387;-46
2022/07/13 02:42:22;;;;;;;1.10;1.00;;;19.40;83.50;;;;;;7383265;19;20360;-46
2022/07/13 02:44:55;;;;;;;1.17;1.07;;;19.60;83.40;;;;;;7383969;19;20379;-46
2022/07/13 02:47:24;;;;;;;2.13;1.70;;;19.60;82.00;;;;;;7379410;19;21080;-46
2022/07/13 02:49:54;;;;;;;1.30;1.20;;;19.40;83.50;;;;;;7385972;19;20408;-46
2022/07/13 02:52:23;;;;;;;1.70;1.10;;;19.50;83.20;;;;;;7385855;19;20419;-46
2022/07/13 02:54:58;;;;;;;1.33;1.23;;;19.60;82.20;;;;;;7386790;19;20435;-46
2022/07/13 02:57:28;;;;;;;1.73;1.33;;;19.70;80.90;;;;;;7379893;19;20448;-46
2022/07/13 03:00:01;;;;;;;1.57;1.30;;;19.80;80.20;;;;;;7383445;19;20432;-46
2022/07/13 03:02:33;;;;;;;1.30;1.20;;;19.70;80.30;;;;;;7379797;19;20417;-46
2022/07/13 03:05:08;;;;;;;1.10;1.00;;;19.50;82.00;;;;;;7384300;19;20368;-46
2022/07/13 03:07:37;;;;;;;1.37;1.20;;;19.40;82.40;;;;;;7384111;19;20377;-45
2022/07/13 03:10:10;;;;;;;1.67;1.30;;;19.10;83.80;;;;;;7385150;19;20442;-46
2022/07/13 03:12:43;;;;;;;1.50;1.40;;;19.00;84.90;;;;;;7373784;19;20388;-46
2022/07/13 03:15:15;;;;;;;1.50;1.40;;;19.20;83.60;;;;;;7380201;19;20376;-46
2022/07/13 03:17:47;;;;;;;1.77;1.30;;;19.30;82.50;;;;;;7382287;19;20372;-46
2022/07/13 03:20:18;;;;;;;4.10;1.87;;;19.30;83.20;;;;;;7380832;19;20432;-50
2022/07/13 03:22:49;;;;;;;1.50;1.40;;;19.00;85.20;;;;;;7379549;19;20718;-50
2022/07/13 03:25:23;;;;;;;1.70;1.50;;;18.80;87.50;;;;;;7382381;19;20846;-50
2022/07/13 03:27:57;;;;;;;3.10;1.40;;;18.50;89.50;;;;;;7382662;19;20382;-50
2022/07/13 03:30:28;;;;;;;1.40;1.30;;;18.40;90.40;;;;;;7380624;19;21048;-51
2022/07/13 03:32:58;;;;;;;2.40;1.30;;;18.20;91.10;;;;;;7382129;19;20384;-50
2022/07/13 03:35:28;;;;;;;1.47;1.37;;;17.90;93.20;;;;;;7384508;19;20372;-50
2022/07/13 03:37:58;;;;;;;1.40;1.30;;;18.00;93.30;;;;;;7372292;19;21142;-50
2022/07/13 03:40:33;;;;;;;1.87;1.20;;;17.80;93.90;;;;;;7378075;19;20957;-50
2022/07/13 03:43:04;;;;;;;2.23;1.63;;;18.00;93.30;;;;;;7382945;19;20380;-50
2022/07/13 03:45:35;;;;;;;1.97;1.40;;;18.20;92.60;;;;;;7384556;19;20364;-50
2022/07/13 03:48:05;;;;;;;2.17;1.63;;;18.50;91.80;;;;;;7387758;19;20380;-50
2022/07/13 03:50:34;;;;;;;1.53;1.43;;;18.40;91.80;;;;;;7384894;19;20383;-50
2022/07/13 03:53:04;;;;;;;1.50;1.40;;;18.40;91.80;;;;;;7383394;19;20384;-50
2022/07/13 03:55:37;;;;;;;2.00;1.33;;;18.40;91.80;;;;;;7384666;19;20910;-50
2022/07/13 03:58:07;;;;;;;1.30;1.07;;;18.50;91.60;;;;;;7378497;19;20404;-51
2022/07/13 04:00:37;;;;;;;2.07;1.50;;;18.30;92.30;;;;;;7377130;19;20423;-49
2022/07/13 04:03:07;;;;;;;1.53;1.40;;;18.00;93.50;;;;;;7374653;19;20945;-50
2022/07/13 04:05:37;;;;;;;4.73;1.40;;;18.10;93.70;;;;;;7381205;19;20448;-51
2022/07/13 04:08:08;;;;;;;3.10;1.47;;;18.20;93.60;;;;;;7377870;19;20376;-49
2022/07/13 04:10:41;;;;;;;1.30;1.20;;;17.90;94.80;;;;;;7380353;19;20368;-51
2022/07/13 04:13:14;;;;;;;1.90;1.40;;;18.20;93.80;;;;;;7380792;19;20411;-50
2022/07/13 04:15:43;;;;;;;1.93;1.10;;;18.50;92.80;;;;;;7379028;19;20823;-50
2022/07/13 04:18:15;;;;;;;2.57;1.60;;;18.50;91.90;;;;;;7380134;19;20443;-51
2022/07/13 04:20:45;;;;;;;1.90;1.30;;;18.60;91.70;;;;;;7384266;19;20451;-50
2022/07/13 04:23:14;;;;;;;2.50;1.47;;;18.30;92.90;;;;;;7378103;19;20360;-50
2022/07/13 04:25:47;;;;;;;1.57;1.40;;;18.50;92.90;;;;;;7377638;19;20388;-50
2022/07/13 04:28:17;;;;;;;2.30;1.20;;;18.40;93.10;;;;;;7379636;19;20420;-50
2022/07/13 04:30:46;;;;;;;1.63;1.40;;;18.40;93.40;;;;;;7375688;19;20814;-51
2022/07/13 04:33:19;;;;;;;2.77;1.60;;;18.30;94.20;;;;;;7374210;19;20368;-50
2022/07/13 04:35:48;;;;;;;2.60;1.30;;;18.40;93.50;;;;;;7377950;19;20785;-50
2022/07/13 04:38:18;;;;;;;1.77;1.67;;;18.10;94.80;;;;;;7374245;19;20861;-52
2022/07/13 04:40:51;;;;;;;1.57;1.47;;;18.00;96.00;;;;;;7376020;19;20372;-51
2022/07/13 04:43:20;;;;;;;3.43;1.70;;;18.20;96.00;;;;;;7379455;19;20949;-51
2022/07/13 04:45:50;;;;;;;1.40;1.30;;;18.40;94.70;;;;;;7372190;19;20436;-50
2022/07/13 04:48:20;;;;;;;2.43;1.60;;;18.40;94.50;;;;;;7371729;19;20385;-50
2022/07/13 04:50:50;;;;;;;1.63;1.47;;;18.50;93.90;;;;;;7382586;19;20380;-45
2022/07/13 04:53:20;;;;;;;1.30;1.20;;;18.40;94.00;;;;;;7371780;19;21078;-45
2022/07/13 04:55:52;;;;;;;1.60;1.50;;;18.60;93.50;;;;;;7379050;19;20778;-44
2022/07/13 04:58:22;;;;;;;2.63;1.60;;;18.90;92.00;;;;;;7378302;19;20389;-45
2022/07/13 05:00:54;;;;;;;2.37;1.33;;;19.10;91.20;;;;;;7377793;19;20444;-44
2022/07/13 05:03:24;;;;;;;1.90;1.40;;;19.10;90.90;;;;;;7370263;19;20471;-45
2022/07/13 05:05:57;;;;;;;2.70;1.47;;;19.10;90.80;;;;;;7382472;19;20765;-45
2022/07/13 05:08:26;;;;;;;2.13;1.80;;;19.30;90.30;;;;;;7378732;19;20399;-45
2022/07/13 05:10:59;;;;;;;1.77;1.47;;;19.50;89.40;;;;;;7378755;19;20387;-45
2022/07/13 05:13:28;;;;;;;2.80;1.80;;;19.60;88.30;;;;;;7372771;19;20379;-44
2022/07/13 05:16:00;;;;;;;4.67;2.33;;;19.60;87.20;;;;;;7370433;19;21074;-45
2022/07/13 05:18:30;;;;;;;3.73;1.87;;;19.70;87.50;;;;;;7370786;19;20376;-46
2022/07/13 05:21:04;;;;;;;2.50;1.80;;;19.70;86.90;;;;;;7374017;19;20399;-45
2022/07/13 05:23:34;;;;;;;2.37;1.73;;;19.90;86.40;;;;;;7375639;19;20833;-45
2022/07/13 05:26:06;;;;;;;1.97;1.60;;;20.00;85.10;;;;;;7349310;19;20455;-45
2022/07/13 05:28:41;;;;;;;2.93;2.20;;;20.10;84.00;;;;;;7367281;19;20458;-45
2022/07/13 05:31:13;;;;;;;2.00;1.60;;;20.20;83.70;;;;;;7376873;19;20889;-45
2022/07/13 05:33:43;;;;;;;2.90;2.40;;;20.30;82.70;;;;;;7372250;19;20384;-45
2022/07/13 05:36:18;;;;;;;1.80;1.53;;;20.40;82.20;;;;;;7365234;19;20379;-45
2022/07/13 05:38:48;;;;;;;2.33;2.00;;;20.60;81.40;;;;;;7362160;19;20420;-45
2022/07/13 05:41:21;;;;;;;2.90;1.40;;;20.70;80.60;;;;;;7373621;19;20708;-45
2022/07/13 05:43:50;;;;;;;2.57;1.80;;;20.80;78.40;;;;;;7381655;19;20388;-45
2022/07/13 05:46:20;;;;;;;2.10;1.50;;;20.90;79.50;;;;;;7381965;19;20372;-45
2022/07/13 05:48:50;;;;;;;4.67;2.50;;;20.90;80.10;;;;;;7383763;19;20761;-45
2022/07/13 05:51:20;;;;;;;2.27;1.60;;;21.00;79.80;;;;;;7383897;19;20384;-45
2022/07/13 05:53:50;;;;;;;3.63;1.80;;;21.10;79.40;;;;;;7381940;19;20382;-45
2022/07/13 05:56:23;;;;;;;3.00;1.70;;;21.20;78.30;;;;;;7384204;19;20380;-45
2022/07/13 05:58:52;;;;;;;1.73;1.53;;;21.30;77.90;;;;;;7386536;19;20457;-45
2022/07/13 06:01:22;;;;;;;3.17;1.63;;;21.30;77.30;;;;;;7390125;19;20945;-45
2022/07/13 06:03:51;;;;;;;1.60;1.50;;;21.40;76.90;;;;;;7386800;19;20373;-45
2022/07/13 06:06:21;;;;;;;1.77;1.40;;;21.40;76.30;;;;;;7388041;19;20380;-45
2022/07/13 06:08:52;;;;;;;4.23;1.80;;;21.40;76.20;;;;;;7392789;19;20905;-45
2022/07/13 06:11:26;;;;;;;1.90;1.50;;;21.50;76.00;;;;;;7389629;19;20743;-45
2022/07/13 06:13:58;;;;;;;2.07;1.67;;;21.50;75.50;;;;;;7389451;19;20382;-45
2022/07/13 06:16:27;;;;;;;5.10;1.37;;;21.60;74.90;;;;;;7391031;19;20388;-45
2022/07/13 06:18:57;;;;;;;2.93;1.77;;;21.70;74.40;;;;;;7387063;19;20905;-45
2022/07/13 06:21:26;;;;;;;1.80;1.40;;;21.70;74.00;;;;;;7390375;19;20937;-45
2022/07/13 06:23:58;;;;;;;1.97;1.77;;;21.80;74.60;;;;;;7392874;19;20387;-45
2022/07/13 06:26:31;;;;;;;1.97;1.73;;;21.80;73.80;;;;;;7386728;19;20391;-45
2022/07/13 06:29:03;;;;;;;2.67;1.70;;;21.80;74.00;;;;;;7387736;19;20610;-45
2022/07/13 06:31:32;;;;;;;5.47;1.73;;;22.00;73.50;;;;;;7390676;19;20406;-45
2022/07/13 06:34:04;;;;;;;2.97;1.93;;;22.10;72.50;;;;;;7385724;19;20400;-45
2022/07/13 06:36:34;;;;;;;2.83;1.40;;;22.30;71.50;;;;;;7388341;19;20380;-45
2022/07/13 06:39:06;;;;;;;2.60;1.83;;;22.50;71.00;;;;;;7389378;19;20711;-45
2022/07/13 06:41:38;;;;;;;7.07;2.03;;;22.60;70.50;;;;;;7387913;19;20372;-45
2022/07/13 06:44:08;;;;;;;2.90;2.33;;;22.70;70.80;;;;;;7381339;19;20926;-45
2022/07/13 06:46:38;;;;;;;3.63;1.80;;;22.80;68.50;;;;;;7386276;19;21131;-45
2022/07/13 06:49:10;;;;;;;1.73;1.47;;;22.90;67.00;;;;;;7376360;19;20965;-45
2022/07/13 06:51:40;;;;;;;2.40;1.40;;;23.00;66.50;;;;;;7385737;19;20945;-45
2022/07/13 06:54:09;;;;;;;2.80;2.43;;;23.10;65.80;;;;;;7382341;19;20373;-45
2022/07/13 06:56:41;;;;;;;3.77;2.20;;;23.20;65.60;;;;;;7382788;19;20368;-45
2022/07/13 06:59:11;;;;;;;3.30;2.17;;;23.40;66.10;;;;;;7387761;19;21070;-45
2022/07/13 07:01:41;;;;;;;3.53;2.33;;;23.50;65.10;;;;;;7380840;19;20373;-51
2022/07/13 07:04:10;;;;;;;5.27;2.40;;;23.60;63.90;;;;;;7383844;19;20372;-50
2022/07/13 07:06:40;;;;;;;6.07;2.33;;;23.80;63.50;;;;;;7379962;19;20380;-49
2022/07/13 07:09:09;;;;;;;3.17;1.97;;;23.90;62.40;;;;;;7380188;19;20380;-50
2022/07/13 07:11:44;;;;;;;2.80;2.03;;;24.00;61.40;;;;;;7383156;19;20858;-50
2022/07/13 07:14:13;;;;;;;5.90;1.73;;;24.20;60.30;;;;;;7386402;19;20401;-51
2022/07/13 07:16:45;;;;;;;1.83;1.60;;;24.20;59.30;;;;;;7381151;19;20372;-50
2022/07/13 07:19:15;;;;;;;2.83;1.90;;;24.40;58.40;;;;;;7385573;19;20383;-50
2022/07/13 07:21:44;;;;;;;4.03;2.70;;;24.50;58.00;;;;;;7382935;19;20376;-50
2022/07/13 07:24:13;;;;;;;3.77;1.87;;;24.50;57.90;;;;;;7379878;19;20939;-49
2022/07/13 07:26:48;;;;;;;1.60;1.10;;;24.60;57.80;;;;;;7377387;19;20380;-50
2022/07/13 07:29:18;;;;;;;5.07;3.63;;;24.70;56.80;;;;;;7379585;19;20428;-50
2022/07/13 07:31:48;;;;;;;5.60;3.80;;;24.80;56.30;;;;;;7383390;19;20837;-50
2022/07/13 07:34:17;;;;;;;3.33;1.97;;;24.90;55.40;;;;;;7381516;19;20409;-51
2022/07/13 07:36:47;;;;;;;2.50;1.40;;;25.00;54.60;;;;;;7378150;19;20391;-50
2022/07/13 07:39:16;;;;;;;6.40;2.43;;;25.20;54.70;;;;;;7386193;19;20393;-50
2022/07/13 07:41:48;;;;;;;2.80;2.00;;;25.20;54.20;;;;;;7384767;19;20385;-50
2022/07/13 07:44:18;;;;;;;1.93;1.10;;;25.40;54.00;;;;;;7382590;19;20393;-49
2022/07/13 07:46:48;;;;;;;1.77;1.27;;;25.50;53.70;;;;;;7385871;19;20399;-50
2022/07/13 07:49:18;;;;;;;1.43;1.33;;;25.60;53.20;;;;;;7381724;19;20388;-51
2022/07/13 07:51:48;;;;;;;3.30;1.80;;;25.80;53.20;;;;;;7383651;19;20380;-50
2022/07/13 07:54:17;;;;;;;3.73;2.30;;;26.00;52.60;;;;;;7377656;19;20492;-49
2022/07/13 07:56:49;;;;;;;2.70;1.10;;;26.30;52.20;;;;;;7379029;19;20375;-50
2022/07/13 07:59:19;;;;;;;2.00;0.90;;;26.70;50.10;;;;;;7379183;19;20383;-45
2022/07/13 08:01:49;;;;;;;2.00;1.13;;;26.80;49.40;;;;;;7380120;19;20364;-46
2022/07/13 08:04:19;;;;;;;3.10;1.30;;;26.90;49.10;;;;;;7380362;19;20409;-45
2022/07/13 08:06:48;;;;;;;1.50;1.37;;;27.00;49.40;;;;;;7373168;19;20388;-46
2022/07/13 08:09:18;;;;;;;2.57;1.90;;;27.30;49.50;;;;;;7376732;19;20383;-46
2022/07/13 08:11:50;;;;;;;1.93;1.43;;;27.40;48.40;;;;;;7369414;19;20400;-46
2022/07/13 08:14:19;;;;;;;1.60;0.90;;;27.60;47.60;;;;;;7375776;19;20384;-46
2022/07/13 08:16:49;;;;;;;1.40;1.00;;;27.80;47.00;;;;;;7378936;19;20368;-46
2022/07/13 08:19:18;;;;;;;1.70;0.97;;;27.90;46.00;;;;;;7383025;19;20376;-46
2022/07/13 08:21:47;;;;;;;3.43;1.70;;;27.90;45.70;;;;;;7384835;19;20932;-46
2022/07/13 08:24:17;;;;;;;5.73;4.40;;;27.90;48.30;;;;;;7384993;19;20397;-46
2022/07/13 08:26:54;;;;;;;5.30;2.67;;;28.00;49.20;;;;;;7385525;19;20391;-46
2022/07/13 08:29:23;;;;;;;3.13;1.93;;;28.00;49.40;;;;;;7383318;19;20395;-46
2022/07/13 08:31:53;;;;;;;2.97;1.60;;;28.00;49.40;;;;;;7384470;19;20957;-46
2022/07/13 08:39:47;;;;;;;2.87;1.90;;;27.80;47.10;;;;;;7387084;19;20390;-46
2022/07/13 08:42:19;;;;;;;1.10;1.00;;;27.90;46.90;;;;;;7382681;19;20376;-46
2022/07/13 08:44:49;;;;;;;0.63;0.60;;;27.90;45.30;;;;;;7382158;19;20392;-46
2022/07/13 08:47:19;;;;;;;2.33;1.00;;;27.90;44.90;;;;;;7383247;19;20391;-46
2022/07/13 08:49:51;;;;;;;2.93;1.00;;;28.10;45.30;;;;;;7386348;19;20371;-46
2022/07/13 08:52:20;;;;;;;1.90;1.03;;;28.20;44.20;;;;;;7380851;19;20372;-46
2022/07/13 08:54:52;;;;;;;2.27;0.90;;;28.40;44.10;;;;;;7388088;19;20418;-46
2022/07/13 08:57:24;;;;;;;2.40;1.30;;;28.60;43.90;;;;;;7382488;19;20371;-46
2022/07/13 08:59:54;;;;;;;2.23;1.00;;;28.60;43.70;;;;;;7381464;19;20444;-50
2022/07/13 09:06:47;;;;;;;2.00;0.97;;;29.00;42.80;;;;;;7385140;19;20403;-51
2022/07/13 09:09:35;;;;;;;1.93;0.90;;;28.90;41.80;;;;;;7382539;19;20914;-51
2022/07/13 09:12:20;;;;;;;2.53;1.07;;;29.00;42.20;;;;;;7384632;19;20480;-50
2022/07/13 09:14:56;;;;;;;1.47;0.80;;;29.30;41.80;;;;;;7383275;19;20885;-51
2022/07/13 09:17:47;;;;;;;1.07;0.90;;;29.40;41.60;;;;;;7379989;19;20380;-51
2022/07/13 09:20:25;;;;;;;1.50;1.00;;;29.60;41.80;;;;;;7383831;19;20460;-51
2022/07/13 09:22:58;;;;;;;1.43;1.07;;;29.80;41.30;;;;;;7383080;19;20431;-50
2022/07/13 09:25:35;;;;;;;2.03;0.83;;;30.10;40.90;;;;;;7383301;19;20961;-50
2022/07/13 09:28:06;;;;;;;2.07;0.80;;;30.50;39.70;;;;;;7386190;19;20368;-51
2022/07/13 09:30:40;;;;;;;2.53;1.10;;;30.30;40.20;;;;;;7384292;19;21098;-50
2022/07/13 09:33:12;;;;;;;1.53;1.10;;;30.50;40.00;;;;;;7379253;19;20720;-50
2022/07/13 09:35:47;;;;;;;6.33;1.10;;;30.70;40.20;;;;;;7385019;19;20814;-50
2022/07/13 09:38:36;;;;;;;9.90;1.10;;;31.00;40.30;;;;;;7379438;19;21399;-50
2022/07/13 09:41:23;;;;;;;1.70;1.23;;;31.20;39.70;;;;;;7380586;19;20725;-50
2022/07/13 09:46:59;;;;;;;1.30;0.80;;;31.40;37.10;;;;;;7381769;19;20356;-50
2022/07/13 09:49:35;;;;;;;3.90;0.97;;;31.50;37.60;;;;;;7377392;19;20398;-52
2022/07/13 09:52:09;;;;;;;2.00;0.83;;;31.90;37.70;;;;;;7379007;19;20380;-50
2022/07/13 09:54:42;;;;;;;5.77;0.97;;;32.10;36.50;;;;;;7381573;19;20376;-51
2022/07/13 09:57:17;;;;;;;3.13;2.00;;;32.00;35.20;;;;;;7380958;19;20372;-50
2022/07/13 09:59:49;;;;;;;1.57;1.10;;;32.30;34.70;;;;;;7378549;19;20428;-46
2022/07/13 10:02:22;;;;;;;2.37;1.33;;;32.50;33.90;;;;;;7381836;19;20380;-46
2022/07/13 10:04:51;;;;;;;0.73;0.73;;;32.60;33.30;;;;;;7383418;19;20465;-46
2022/07/13 10:07:21;;;;;;;3.60;0.80;;;32.50;34.00;;;;;;7379537;19;20375;-47
2022/07/13 10:09:53;;;;;;;1.60;0.77;;;32.30;33.80;;;;;;7377727;19;20878;-46
2022/07/13 10:12:25;;;;;;;2.30;0.90;;;32.50;32.50;;;;;;7381723;19;20380;-46
2022/07/13 10:14:56;;;;;;;1.37;0.80;;;32.90;33.10;;;;;;7383875;19;20372;-46
2022/07/13 10:17:29;;;;;;;2.50;0.60;;;33.30;32.10;;;;;;7383176;19;20372;-46
2022/07/13 10:20:06;;;;;;;1.70;0.53;;;33.60;30.80;;;;;;7380933;19;20737;-46
2022/07/13 10:22:42;;;;;;;3.27;0.60;;;34.00;29.50;;;;;;7383245;19;20364;-46
2022/07/13 10:25:14;;;;;;;7.50;2.17;;;34.10;29.60;;;;;;7378133;19;20472;-46
2022/07/13 10:27:44;;;;;;;2.30;0.70;;;34.20;28.80;;;;;;7376119;19;20455;-46
2022/07/13 10:30:25;;;;;;;0.83;0.70;;;34.10;27.60;;;;;;7383471;19;21068;-46
2022/07/13 10:33:19;;;;;;;1.27;0.60;;;34.20;28.20;;;;;;7380588;19;20920;-46
2022/07/13 10:35:52;;;;;;;1.10;0.87;;;34.50;27.20;;;;;;7383024;19;20909;-46
2022/07/13 10:38:27;;;;;;;2.00;0.60;;;34.60;27.40;;;;;;7380658;19;20384;-46
2022/07/13 10:41:22;;;;;;;1.37;0.90;;;34.50;27.70;;;;;;7375775;19;20471;-46
2022/07/13 10:44:05;;;;;;;0.60;0.50;;;34.40;28.70;;;;;;7380972;19;20381;-46
2022/07/13 10:46:50;;;;;;;0.83;0.67;;;34.40;28.70;;;;;;7383243;19;20388;-46
2022/07/13 10:49:37;;;;;;;1.13;0.57;;;34.70;28.40;;;;;;7386476;19;20392;-46
2022/07/13 10:52:49;;;;;;;0.90;0.43;;;34.70;27.20;;;;;;7386738;19;20383;-46
2022/07/13 10:55:32;;;;;;;0.70;0.60;;;34.60;27.00;;;;;;7384193;19;20720;-46
2022/07/13 10:58:34;;;;;;;2.50;0.77;;;34.70;25.90;;;;;;7386079;19;20372;-46
2022/07/13 11:01:43;;;;;;;2.00;0.50;;;35.20;26.10;;;;;;7384095;19;20428;-46
2022/07/13 11:04:16;;;;;;;1.93;0.60;;;35.50;25.70;;;;;;7387250;19;20375;-46
2022/07/13 11:07:11;;;;;;;2.20;0.63;;;35.40;25.40;;;;;;7388146;19;20372;-47
2022/07/13 11:09:41;;;;;;;3.07;0.67;;;35.70;25.40;;;;;;7389676;19;20476;-50
2022/07/13 11:12:24;;;;;;;0.90;0.70;;;35.80;24.90;;;;;;7385731;19;20392;-51
2022/07/13 11:14:55;;;;;;;1.00;0.67;;;36.00;24.90;;;;;;7388203;19;20398;-50
2022/07/13 11:17:27;;;;;;;1.20;0.60;;;36.00;24.80;;;;;;7389397;19;20403;-51
2022/07/13 11:20:00;;;;;;;4.47;1.10;;;36.10;24.70;;;;;;7387946;19;20772;-50
2022/07/13 11:25:29;;;;;;;0.60;0.43;;;36.30;24.50;;;;;;7384293;19;20399;-50
2022/07/13 11:28:17;;;;;;;2.50;1.10;;;36.30;24.50;;;;;;7387323;19;20443;-51
2022/07/13 11:30:51;;;;;;;2.17;1.20;;;36.30;24.50;;;;;;7361295;19;20387;-52
2022/07/13 11:33:21;;;;;;;1.77;0.70;;;36.30;25.00;;;;;;7375419;19;20384;-52
2022/07/13 11:35:51;;;;;;;1.50;0.90;;;36.20;25.10;;;;;;7378532;19;20416;-52
2022/07/13 11:38:23;;;;;;;1.33;0.87;;;36.10;24.70;;;;;;7369542;19;20892;-51
2022/07/13 11:40:55;;;;;;;3.43;0.93;;;36.10;25.00;;;;;;7374504;19;21056;-50
2022/07/13 11:43:25;;;;;;;2.00;0.93;;;36.40;25.50;;;;;;7368591;19;20995;-51
2022/07/13 11:45:55;;;;;;;1.00;0.70;;;36.50;24.00;;;;;;7379919;19;20372;-52
2022/07/13 11:48:25;;;;;;;0.60;0.40;;;36.80;24.20;;;;;;7379055;19;20416;-50
2022/07/13 11:50:54;;;;;;;0.70;0.50;;;36.60;23.60;;;;;;7359291;19;20744;-50
2022/07/13 11:53:29;;;;;;;0.93;0.80;;;36.40;23.70;;;;;;7374698;19;20384;-52
2022/07/13 11:56:01;;;;;;;0.70;0.40;;;36.30;24.40;;;;;;7372086;19;20383;-51
2022/07/13 11:58:34;;;;;;;0.60;0.57;;;36.40;24.10;;;;;;7371597;19;20397;-51
2022/07/13 12:01:15;;;;;;;0.90;0.60;;;36.40;24.10;;;;;;7364394;19;20537;-52
2022/07/13 12:03:49;;;;;;;3.10;2.27;;;36.60;24.30;;;;;;7370638;19;20921;-50
2022/07/13 12:06:20;;;;;;;2.87;0.97;;;37.10;24.50;;;;;;7375628;19;20409;-50
2022/07/13 12:08:52;;;;;;;0.60;0.47;;;37.20;23.60;;;;;;7366554;19;20452;-51
2022/07/13 12:11:24;;;;;;;0.83;0.53;;;37.20;22.30;;;;;;7370642;19;20359;-46
2022/07/13 12:13:54;;;;;;;0.67;0.40;;;37.10;21.70;;;;;;7366033;19;20384;-46
2022/07/13 12:16:23;;;;;;;1.23;0.60;;;36.40;21.90;;;;;;7379956;19;20376;-46
2022/07/13 12:19:03;;;;;;;0.90;0.50;;;36.40;22.70;;;;;;7373546;19;20438;-46
2022/07/13 12:21:39;;;;;;;0.60;0.40;;;36.30;22.40;;;;;;7383415;19;20372;-46
2022/07/13 12:24:19;;;;;;;0.60;0.40;;;36.20;23.00;;;;;;7380456;19;20379;-47
2022/07/13 12:26:53;;;;;;;0.77;0.50;;;36.10;22.80;;;;;;7379857;19;20372;-46
2022/07/13 12:29:30;;;;;;;0.80;0.40;;;35.70;23.30;;;;;;7377608;19;21021;-46
2022/07/13 12:32:00;;;;;;;1.90;0.60;;;35.50;23.70;;;;;;7374757;19;20384;-46
2022/07/13 12:34:30;;;;;;;0.80;0.60;;;35.40;24.10;;;;;;7378789;19;20396;-46
2022/07/13 12:37:02;;;;;;;0.77;0.47;;;35.30;23.60;;;;;;7375130;19;20376;-46
2022/07/13 12:39:40;;;;;;;0.60;0.40;;;35.10;23.70;;;;;;7378286;19;20376;-49
2022/07/13 12:42:14;;;;;;;3.17;0.70;;;35.00;23.80;;;;;;7379218;19;20376;-51
2022/07/13 12:44:46;;;;;;;1.30;0.90;;;35.00;24.10;;;;;;7371736;19;20385;-50
2022/07/13 12:47:22;;;;;;;0.90;0.50;;;35.10;24.20;;;;;;7374928;19;20750;-50
2022/07/13 12:49:52;;;;;;;0.90;0.50;;;35.30;24.10;;;;;;7377426;19;20375;-50
2022/07/13 12:52:26;;;;;;;1.73;0.60;;;35.00;23.90;;;;;;7373468;19;20370;-50
2022/07/13 12:54:59;;;;;;;1.10;0.50;;;34.90;24.30;;;;;;7374090;19;20405;-50
2022/07/13 12:57:29;;;;;;;0.60;0.43;;;34.80;24.10;;;;;;7369562;19;20407;-51
2022/07/13 13:00:05;;;;;;;0.90;0.37;;;34.60;24.40;;;;;;7370963;19;20424;-50
2022/07/13 13:02:35;;;;;;;1.80;0.70;;;34.60;24.40;;;;;;7367881;19;20920;-50
2022/07/13 13:05:05;;;;;;;0.87;0.37;;;34.50;24.50;;;;;;7375803;19;20451;-53
2022/07/13 13:07:37;;;;;;;0.57;0.43;;;34.20;24.30;;;;;;7376353;19;20422;-50
2022/07/13 13:10:11;;;;;;;1.57;0.50;;;34.00;24.40;;;;;;7373301;19;20376;-50
2022/07/13 13:12:43;;;;;;;1.00;0.90;;;33.80;24.60;;;;;;7367122;19;20372;-50
2022/07/13 13:15:13;;;;;;;0.70;0.60;;;33.60;25.10;;;;;;7364235;19;20383;-51
2022/07/13 13:17:43;;;;;;;0.97;0.57;;;33.70;25.30;;;;;;7352427;19;20431;-49
2022/07/13 13:20:14;;;;;;;1.50;0.60;;;33.60;24.90;;;;;;7370015;19;20439;-49
2022/07/13 13:22:44;;;;;;;1.47;0.50;;;33.50;25.10;;;;;;7366533;19;20394;-50
2022/07/13 13:25:18;;;;;;;1.03;0.50;;;33.60;25.50;;;;;;7372400;19;20435;-50
2022/07/13 13:27:50;;;;;;;1.20;0.70;;;33.60;25.70;;;;;;7368446;19;20730;-50
2022/07/13 13:33:09;;;;;;;2.30;0.70;;;33.60;25.50;;;;;;7371531;19;20394;-51